Time;durP1;ratioP1;P1;durP2;ratioP2;P2;SDS_P1;SDS_P2;PMS_P1;PMS_P2;Temp;Humidity;BMP_temperature;BMP_pressure;BME280_temperature;BME280_humidity;BME280_pressure;Samples;Min_cycle;Max_cycle;Signal;HPM_P1;HPM_P2
2023/03/31 00:00:36;;;;;;;;;2.67;2.00;;;;;15.27;62.78;100389.56;1981451;28;2734672;-79
2023/03/31 00:01:51;;;;;;;;;1.67;0.17;;;;;15.28;62.81;100379.84;1982294;28;2725278;-78
2023/03/31 00:03:08;;;;;;;;;3.17;1.83;;;;;15.28;62.78;100385.97;1982719;28;2727373;-79
2023/03/31 00:04:22;;;;;;;;;3.83;2.67;;;;;15.28;62.66;100385.13;1982120;28;2738839;-78
2023/03/31 00:05:36;;;;;;;;;3.83;1.83;;;;;15.29;62.72;100382.38;1981050;28;2741925;-78
2023/03/31 00:06:47;;;;;;;;;5.00;2.00;;;;;15.28;62.66;100379.84;1955195;28;2742978;-79
2023/03/31 00:08:01;;;;;;;;;6.00;1.00;;;;;15.28;62.56;100380.66;2003088;28;2746111;-78
2023/03/31 00:09:17;;;;;;;;;4.50;1.83;;;;;15.28;62.53;100387.78;2004604;28;2748177;-78
2023/03/31 00:10:33;;;;;;;;;5.17;1.00;;;;;15.27;62.45;100394.84;1981821;28;2743357;-78
2023/03/31 00:11:50;;;;;;;;;3.67;2.33;;;;;15.26;63.09;100406.38;1980727;28;2740903;-78
2023/03/31 00:13:04;;;;;;;;;3.33;1.67;;;;;15.24;62.38;100405.63;1973346;28;2738852;-78
2023/03/31 00:14:19;;;;;;;;;1.33;1.00;;;;;15.23;62.69;100401.28;1998041;28;2734641;-78
2023/03/31 00:15:32;;;;;;;;;4.33;1.00;;;;;15.24;62.69;100397.69;1981259;28;2736858;-78
2023/03/31 00:16:44;;;;;;;;;5.33;2.00;;;;;15.23;62.68;100398.63;1955857;28;2749690;-79
2023/03/31 00:17:59;;;;;;;;;5.83;1.67;;;;;15.23;62.69;100403.94;2004479;28;2733584;-79
2023/03/31 00:19:16;;;;;;;;;4.33;2.33;;;;;15.24;63.15;100396.81;1950065;28;2752372;-79
2023/03/31 00:20:32;;;;;;;;;2.67;2.67;;;;;15.24;63.02;100391.53;2004131;28;2746172;-79
2023/03/31 00:21:47;;;;;;;;;4.50;2.00;;;;;15.23;63.16;100374.81;1981885;28;2735679;-79
2023/03/31 00:23:00;;;;;;;;;2.00;2.00;;;;;15.23;63.29;100336.88;1981847;28;2737788;-79
2023/03/31 00:24:15;;;;;;;;;2.67;1.83;;;;;15.22;63.09;100316.63;1982632;28;2729425;-79
2023/03/31 00:25:28;;;;;;;;;5.17;3.00;;;;;15.23;63.24;100310.41;1981006;28;2749227;-79
2023/03/31 00:26:41;;;;;;;;;6.00;3.00;;;;;15.23;63.35;100308.63;1980450;28;2754448;-79
2023/03/31 00:27:54;;;;;;;;;2.33;2.33;;;;;15.23;63.29;100282.16;1976882;28;2750277;-79
2023/03/31 00:29:07;;;;;;;;;2.00;2.00;;;;;15.23;63.46;100270.72;1953902;28;2740895;-79
2023/03/31 00:30:20;;;;;;;;;3.17;1.50;;;;;15.22;63.37;100272.50;1995936;28;2744379;-79
2023/03/31 00:31:34;;;;;;;;;3.83;2.00;;;;;15.22;63.66;100283.09;1974465;28;2734675;-79
2023/03/31 00:32:45;;;;;;;;;2.67;2.00;;;;;15.21;63.62;100270.78;1962840;28;2754416;-79
2023/03/31 00:33:59;;;;;;;;;4.33;1.33;;;;;15.19;63.59;100264.72;2010566;28;2734629;-79
2023/03/31 00:35:12;;;;;;;;;3.00;1.17;;;;;15.18;63.17;100263.03;1982198;28;2733629;-79
2023/03/31 00:36:30;;;;;;;;;4.83;2.33;;;;;15.15;63.35;100250.00;1980627;28;2752365;-79
2023/03/31 00:37:44;;;;;;;;;0.50;0.50;;;;;15.12;63.43;100244.88;1981731;28;2730490;-79
2023/03/31 00:39:07;;;;;;;;;2.50;2.17;;;;;15.11;63.77;100248.47;2003156;28;2736740;-79
2023/03/31 00:40:17;;;;;;;;;7.33;2.00;;;;;15.09;63.70;100258.31;1955978;28;2750390;-79
2023/03/31 00:41:29;;;;;;;;;4.00;1.33;;;;;15.07;63.82;100255.75;2003692;28;2733604;-79
2023/03/31 00:42:43;;;;;;;;;5.33;2.00;;;;;15.03;63.57;100264.81;1974752;28;2750266;-79
2023/03/31 00:44:23;;;;;;;;;3.50;2.83;;;;;15.01;63.76;100256.97;1980110;28;2744024;-79
2023/03/31 00:45:36;;;;;;;;;3.00;1.33;;;;;14.98;64.00;100261.59;1978378;28;2736781;-79
2023/03/31 00:46:57;;;;;;;;;2.00;1.67;;;;;14.97;63.34;100247.50;1982374;28;2735679;-79
2023/03/31 00:48:17;;;;;;;;;1.83;1.33;;;;;14.94;63.32;100237.09;1981989;28;2733604;-79
2023/03/31 00:49:36;;;;;;;;;5.50;1.83;;;;;14.90;63.22;100235.56;1980749;28;2748182;-79
2023/03/31 00:50:54;;;;;;;;;2.50;2.00;;;;;14.87;63.55;100241.91;1981065;28;2744014;-79
2023/03/31 00:52:23;;;;;;;;;4.17;3.00;;;;;14.84;63.78;100237.59;1972666;28;2753407;-79
2023/03/31 00:53:36;;;;;;;;;1.83;1.50;;;;;14.81;63.59;100227.22;1977564;28;2729440;-79
2023/03/31 00:54:57;;;;;;;;;3.83;2.67;;;;;14.79;63.44;100220.31;1982221;28;2746103;-79
2023/03/31 00:56:14;;;;;;;;;2.33;2.33;;;;;14.79;63.96;100226.44;1982886;28;2733615;-79
2023/03/31 00:57:32;;;;;;;;;1.33;1.00;;;;;14.78;63.81;100226.53;1983103;28;2742966;-79
2023/03/31 00:58:46;;;;;;;;;4.17;1.50;;;;;14.78;63.88;100221.25;1983469;28;2737881;-79
2023/03/31 01:00:15;;;;;;;;;3.67;2.17;;;;;14.77;63.62;100209.81;2002752;28;2729424;-79
2023/03/31 01:01:30;;;;;;;;;4.33;2.50;;;;;14.74;63.54;100210.84;1978564;28;2732614;-79
2023/03/31 01:02:50;;;;;;;;;4.00;2.00;;;;;14.72;64.05;100198.66;1948756;28;2749275;-78
2023/03/31 01:04:06;;;;;;;;;3.00;1.83;;;;;14.69;63.60;100207.63;2004130;28;2749253;-78
2023/03/31 01:05:23;;;;;;;;;3.50;1.00;;;;;14.68;63.93;100220.94;1974775;28;2737109;-78
2023/03/31 01:06:49;;;;;;;;;2.33;1.00;;;;;14.68;63.83;100207.72;1981244;28;2731528;-77
2023/03/31 01:08:04;;;;;;;;;0.83;0.83;;;;;14.66;63.88;100202.53;2006565;28;2731525;-78
2023/03/31 01:09:15;;;;;;;;;6.33;5.33;;;;;14.68;64.46;100210.38;1956048;28;2752389;-77
2023/03/31 01:10:28;;;;;;;;;43.67;36.00;;;;;14.67;63.94;100208.69;1977009;28;3605447;-77
2023/03/31 01:11:39;;;;;;;;;41.00;33.00;;;;;14.66;63.55;100199.88;1991231;28;2863860;-76
2023/03/31 01:12:54;;;;;;;;;80.20;65.00;;;;;14.67;64.12;100198.09;1959411;28;3656505;-76
2023/03/31 01:14:05;;;;;;;;;86.50;73.00;;;;;14.66;64.56;100191.94;1942378;28;2516977;-76
2023/03/31 01:15:18;;;;;;;;;106.33;93.33;;;;;14.68;63.95;100189.19;1966927;28;3677300;-76
2023/03/31 01:16:30;;;;;;;;;58.20;46.40;;;;;14.67;63.73;100195.44;1988191;28;3606461;-78
2023/03/31 01:17:43;;;;;;;;;53.00;43.80;;;;;14.68;64.09;100189.19;1967199;28;3599171;-78
2023/03/31 01:18:56;;;;;;;;;33.33;31.00;;;;;14.67;64.26;100188.34;1947589;28;2846092;-78
2023/03/31 01:20:39;;;;;;;;;25.00;21.00;;;;;14.66;63.83;100188.44;1971912;28;2842915;-78
2023/03/31 01:22:24;;;;;;;;;52.00;39.50;;;;;14.65;63.79;100182.28;1953752;28;2865894;-78
2023/03/31 01:23:59;;;;;;;;;56.00;44.00;;;;;14.64;63.74;100177.97;1955452;28;2874219;-78
2023/03/31 01:25:38;;;;;;;;;78.50;64.50;;;;;14.65;63.71;100178.78;1953878;28;2898288;-77
2023/03/31 01:27:16;;;;;;;;;60.00;45.00;;;;;14.65;64.11;100174.38;1954112;28;2889926;-78
2023/03/31 01:28:37;;;;;;;;;67.00;52.00;;;;;14.64;63.87;100164.75;1953235;28;2877405;-78
2023/03/31 01:30:02;;;;;;;;;61.00;46.00;;;;;14.62;63.96;100159.53;1954386;28;2885669;-78
2023/03/31 01:31:42;;;;;;;;;72.00;54.00;;;;;14.62;63.81;100158.66;1953583;28;2872486;-77
2023/03/31 01:33:15;;;;;;;;;53.00;41.67;;;;;14.63;63.77;100149.81;1930096;28;3598531;-77
2023/03/31 01:34:37;;;;;;;;;46.00;37.00;;;;;14.65;63.95;100139.97;1942679;28;2849224;-77
2023/03/31 01:36:06;;;;;;;;;17.00;16.00;;;;;14.66;64.27;100144.34;1951707;28;2816962;-77
2023/03/31 01:37:59;;;;;;;;;7.67;7.00;;;;;14.67;63.96;100139.91;1955824;28;2740985;-77
2023/03/31 01:39:18;;;;;;;;;3.00;2.00;;;;;14.65;63.70;100139.13;1980562;28;2749235;-77
2023/03/31 01:40:56;;;;;;;;;3.33;2.67;;;;;14.67;63.77;100129.34;1979548;28;2750294;-77
2023/03/31 01:42:35;;;;;;;;;3.33;2.33;;;;;14.68;63.95;100131.00;2005298;28;2746084;-77
2023/03/31 01:44:11;;;;;;;;;3.17;1.50;;;;;14.68;63.97;100126.59;1983708;28;2725259;-77
2023/03/31 01:46:02;;;;;;;;;4.83;4.67;;;;;14.69;64.16;100138.03;1981862;28;2745085;-77
2023/03/31 01:47:21;;;;;;;;;4.67;4.67;;;;;14.68;63.81;100131.88;1956179;28;3463783;-77
2023/03/31 01:48:53;;;;;;;;;2.67;2.50;;;;;14.68;63.95;100133.66;2004974;28;2752368;-77
2023/03/31 01:50:25;;;;;;;;;4.67;4.17;;;;;14.69;64.13;100132.72;1989191;28;2751318;-77
2023/03/31 01:51:44;;;;;;;;;7.00;6.00;;;;;14.68;64.09;100123.94;1960422;28;2736704;-77
2023/03/31 01:53:04;;;;;;;;;4.00;2.00;;;;;14.69;63.87;100109.75;1978533;28;3462764;-78
2023/03/31 01:54:32;;;;;;;;;7.67;4.00;;;;;14.69;64.05;100117.69;1980009;28;2758587;-77
2023/03/31 01:56:01;;;;;;;;;3.67;3.00;;;;;14.70;64.15;100111.47;2004855;28;2745085;-77
2023/03/31 01:57:30;;;;;;;;;9.00;4.67;;;;;14.70;64.11;100106.19;1956869;28;2753482;-77
2023/03/31 01:59:01;;;;;;;;;5.83;3.83;;;;;14.71;64.05;100105.25;2005129;28;2743006;-77
2023/03/31 02:00:14;;;;;;;;;5.00;5.00;;;;;14.72;64.15;100098.13;1956408;28;2747252;-77
2023/03/31 02:01:41;;;;;;;;;5.00;3.00;;;;;14.72;64.04;100095.50;1977671;28;2750263;-78
2023/03/31 02:03:28;;;;;;;;;7.67;4.17;;;;;14.70;63.75;100087.66;2005455;28;2744027;-77
2023/03/31 02:04:45;;;;;;;;;3.67;3.67;;;;;14.68;63.81;100086.91;1952873;28;2750455;-77
2023/03/31 02:06:00;;;;;;;;;5.00;3.00;;;;;14.68;63.70;100084.25;1979343;28;2754427;-77
2023/03/31 02:07:19;;;;;;;;;6.67;3.00;;;;;14.67;64.15;100082.56;1978875;28;2739869;-77
2023/03/31 02:08:37;;;;;;;;;2.00;2.00;;;;;14.65;63.83;100078.28;2006393;28;2734673;-77
2023/03/31 02:09:55;;;;;;;;;3.00;3.00;;;;;14.61;64.06;100081.16;1956929;28;2750274;-77
2023/03/31 02:11:06;;;;;;;;;4.00;3.00;;;;;14.61;63.76;100077.66;1979177;28;2748171;-77
2023/03/31 02:12:21;;;;;;;;;2.00;2.00;;;;;14.60;64.16;100075.94;1988300;28;2752439;-77
2023/03/31 02:13:38;;;;;;;;;4.33;2.00;;;;;14.60;63.74;100073.28;2010623;28;2752849;-77
2023/03/31 02:14:55;;;;;;;;;4.67;2.00;;;;;14.60;64.04;100075.94;1981874;28;2746091;-77
2023/03/31 02:16:11;;;;;;;;;5.67;1.67;;;;;14.61;63.95;100069.72;1956669;28;2746146;-77
2023/03/31 02:17:31;;;;;;;;;3.50;2.00;;;;;14.62;64.04;100069.59;2004848;28;2746122;-77
2023/03/31 02:18:48;;;;;;;;;4.67;3.00;;;;;14.61;64.17;100073.22;1989143;28;2740918;-77
2023/03/31 02:20:10;;;;;;;;;3.50;3.50;;;;;14.61;64.50;100073.22;1987992;28;2737821;-77
2023/03/31 02:21:23;;;;;;;;;6.00;3.00;;;;;14.59;63.91;100056.56;1988383;28;2746092;-77
2023/03/31 02:22:39;;;;;;;;;3.17;2.67;;;;;14.59;64.18;100075.06;1980269;28;2744016;-77
2023/03/31 02:23:53;;;;;;;;;1.33;1.33;;;;;14.58;64.13;100065.47;1976164;28;2737777;-77
2023/03/31 02:25:10;;;;;;;;;2.67;2.67;;;;;14.58;64.17;100064.59;1981926;28;2741936;-77
2023/03/31 02:26:27;;;;;;;;;5.00;2.00;;;;;14.58;64.13;100067.25;1957086;28;2750286;-77
2023/03/31 02:27:46;;;;;;;;;3.17;3.00;;;;;14.58;64.17;100069.91;2005314;28;2727361;-77
2023/03/31 02:28:59;;;;;;;;;4.67;3.33;;;;;14.59;64.16;100061.84;1981296;28;2744022;-77
2023/03/31 02:30:13;;;;;;;;;4.33;3.83;;;;;14.59;63.88;100061.03;1981686;28;2749240;-77
2023/03/31 02:31:44;;;;;;;;;3.17;1.17;;;;;14.59;63.94;100053.91;1982282;28;2734677;-77
2023/03/31 02:32:55;;;;;;;;;10.67;4.00;;;;;14.60;63.82;100050.34;1956151;28;2770657;-77
2023/03/31 02:34:06;;;;;;;;;2.00;1.33;;;;;14.61;63.88;100051.19;2004571;28;2735674;-77
2023/03/31 02:35:21;;;;;;;;;4.17;2.67;;;;;14.61;63.81;100052.06;1983324;28;2743030;-77
2023/03/31 02:36:33;;;;;;;;;3.00;2.00;;;;;14.63;63.96;100047.53;1957243;28;2744051;-77
2023/03/31 02:37:44;;;;;;;;;3.67;2.33;;;;;14.65;64.00;100043.91;1979303;28;2754471;-77
2023/03/31 02:39:04;;;;;;;;;2.17;2.17;;;;;14.66;64.09;100032.41;2003860;28;2752343;-77
2023/03/31 02:40:20;;;;;;;;;4.17;2.00;;;;;14.67;63.95;100036.75;1981848;28;2741925;-77
2023/03/31 02:41:31;;;;;;;;;3.00;3.00;;;;;14.68;64.06;100019.94;1948524;28;2754436;-77
2023/03/31 02:42:42;;;;;;;;;3.00;2.00;;;;;14.68;63.90;100025.22;1972038;28;2747179;-77
2023/03/31 02:43:56;;;;;;;;;3.50;2.50;;;;;14.68;63.73;100022.56;2004843;28;2750265;-77
2023/03/31 02:45:43;;;;;;;;;2.00;2.00;;;;;14.68;63.80;100014.63;1982001;28;2751319;-77
2023/03/31 02:46:56;;;;;;;;;3.00;2.00;;;;;14.68;63.90;100010.22;1982331;28;2746107;-77
2023/03/31 02:48:17;;;;;;;;;3.33;1.00;;;;;14.68;63.67;100004.06;1978220;28;2725298;-78
2023/03/31 02:49:31;;;;;;;;;2.50;1.17;;;;;14.67;63.47;99989.97;1984911;28;2725783;-77
2023/03/31 02:51:09;;;;;;;;;2.00;1.50;;;;;14.67;63.68;99983.88;1988724;28;2726305;-77
2023/03/31 02:52:37;;;;;;;;;3.00;3.00;;;;;14.66;63.62;99982.16;1957056;28;2751315;-77
2023/03/31 02:54:09;;;;;;;;;3.67;2.67;;;;;14.66;63.65;99979.50;1978699;28;3470064;-77
2023/03/31 02:55:46;;;;;;;;;3.33;2.00;;;;;14.66;63.75;99974.22;1986000;28;2748362;-77
2023/03/31 02:57:34;;;;;;;;;2.17;2.17;;;;;14.67;63.78;99965.34;1999569;28;2747222;-77
2023/03/31 02:59:05;;;;;;;;;2.33;1.50;;;;;14.67;63.54;99962.72;1986294;28;2733595;-77
2023/03/31 03:00:25;;;;;;;;;4.00;1.00;;;;;14.63;63.76;99968.19;1978545;28;2739853;-77
2023/03/31 03:01:57;;;;;;;;;6.83;3.33;;;;;14.60;63.80;99965.72;1989421;28;2746101;-77
2023/03/31 03:03:34;;;;;;;;;1.67;1.67;;;;;14.60;63.75;99964.88;1960507;28;2740341;-77
2023/03/31 03:05:12;;;;;;;;;4.00;3.67;;;;;14.60;63.77;99965.72;2005296;28;2739841;-78
2023/03/31 03:06:52;;;;;;;;;5.33;3.00;;;;;14.60;63.90;99960.44;1948838;28;2752377;-77
2023/03/31 03:08:17;;;;;;;;;2.83;2.00;;;;;14.60;63.87;99957.78;2000399;28;2739964;-77
2023/03/31 03:09:40;;;;;;;;;3.17;2.00;;;;;14.62;63.62;99957.69;1976672;28;2733603;-77
2023/03/31 03:11:17;;;;;;;;;4.67;3.00;;;;;14.63;63.84;99954.97;1988814;28;2743006;-77
2023/03/31 03:12:39;;;;;;;;;2.67;2.67;;;;;14.63;63.82;99952.31;1984852;28;2754435;-77
2023/03/31 03:14:21;;;;;;;;;5.83;3.83;;;;;14.64;63.83;99945.22;1989171;28;2744027;-77
2023/03/31 03:15:43;;;;;;;;;3.17;3.17;;;;;14.65;63.88;99943.41;1980702;28;2739864;-78
2023/03/31 03:17:06;;;;;;;;;2.17;2.17;;;;;14.65;63.76;99952.22;1982007;28;2750289;-77
2023/03/31 03:18:19;;;;;;;;;1.50;1.50;;;;;14.65;63.77;99941.63;1973615;28;2728423;-78
2023/03/31 03:19:32;;;;;;;;;3.00;3.00;;;;;14.63;63.70;99949.66;1975303;28;2729441;-77
2023/03/31 03:20:48;;;;;;;;;5.00;2.83;;;;;14.64;63.44;99950.53;1982195;28;2734696;-78
2023/03/31 03:22:01;;;;;;;;;2.83;1.83;;;;;14.65;63.42;99948.72;1973289;28;2744044;-77
2023/03/31 03:23:15;;;;;;;;;6.00;2.83;;;;;14.65;63.75;99948.72;1974355;28;2750383;-78
2023/03/31 03:24:28;;;;;;;;;8.67;3.00;;;;;14.65;63.51;99940.78;1954565;28;2757607;-78
2023/03/31 03:25:41;;;;;;;;;2.00;1.50;;;;;14.63;63.54;99949.66;2004161;28;2732561;-78
2023/03/31 03:26:55;;;;;;;;;4.33;4.00;;;;;14.63;63.64;99949.66;1982182;28;2739870;-77
2023/03/31 03:28:08;;;;;;;;;2.67;2.00;;;;;14.63;63.41;99939.09;1981514;28;2741981;-78
2023/03/31 03:29:22;;;;;;;;;4.17;3.00;;;;;14.63;63.60;99943.53;1980658;28;2738109;-78
2023/03/31 03:30:35;;;;;;;;;5.17;2.17;;;;;14.63;63.54;99948.81;1981875;28;2744428;-77
2023/03/31 03:31:46;;;;;;;;;7.33;5.33;;;;;14.63;63.57;99954.97;1956495;28;2747142;-78
2023/03/31 03:32:58;;;;;;;;;4.00;1.50;;;;;14.63;63.40;99948.81;2003489;28;2734645;-78
2023/03/31 03:34:11;;;;;;;;;5.33;2.00;;;;;14.62;63.50;99942.66;1981916;28;2746099;-78
2023/03/31 03:35:24;;;;;;;;;2.50;2.17;;;;;14.63;63.79;99947.03;1993494;28;2731533;-78
2023/03/31 03:36:39;;;;;;;;;3.67;2.00;;;;;14.62;63.61;99941.81;1962914;28;2750257;-78
2023/03/31 03:37:52;;;;;;;;;3.83;3.50;;;;;14.60;63.70;99938.41;1995293;28;2742109;-78
2023/03/31 03:39:06;;;;;;;;;6.00;3.50;;;;;14.60;63.83;99938.41;1973262;28;2737763;-78
2023/03/31 03:40:20;;;;;;;;;3.50;3.33;;;;;14.58;63.42;99935.88;1981147;28;2733600;-77
2023/03/31 03:41:32;;;;;;;;;3.00;3.00;;;;;14.59;63.75;99932.28;1957253;28;2737778;-78
2023/03/31 03:42:42;;;;;;;;;4.00;2.00;;;;;14.59;63.49;99929.63;1978341;28;2754525;-78
2023/03/31 03:43:53;;;;;;;;;3.00;3.00;;;;;14.58;63.64;99913.88;2003231;28;2737785;-78
2023/03/31 03:45:07;;;;;;;;;3.83;3.17;;;;;14.58;63.38;99922.66;2010809;28;2744527;-77
2023/03/31 03:46:20;;;;;;;;;3.00;3.00;;;;;14.57;63.51;99917.47;1986779;28;2747164;-78
2023/03/31 03:47:34;;;;;;;;;2.83;2.83;;;;;14.57;63.73;99918.31;1980450;28;2754459;-78
2023/03/31 03:48:48;;;;;;;;;4.50;3.17;;;;;14.57;63.78;99907.72;1981578;28;2741925;-78
2023/03/31 03:50:02;;;;;;;;;4.50;3.00;;;;;14.56;63.93;99902.53;1980679;28;2749231;-78
2023/03/31 03:51:15;;;;;;;;;5.17;4.00;;;;;14.55;63.64;99901.69;1974950;28;2748177;-78
2023/03/31 03:52:29;;;;;;;;;3.33;2.33;;;;;14.55;64.00;99898.19;1982760;28;2742963;-77
2023/03/31 03:53:39;;;;;;;;;4.00;3.00;;;;;14.54;64.13;99902.66;1956733;28;2750269;-77
2023/03/31 03:54:50;;;;;;;;;3.67;3.00;;;;;14.51;64.05;99892.25;1988445;28;3449232;-77
2023/03/31 03:56:01;;;;;;;;;7.00;4.00;;;;;14.50;64.07;99887.91;1992080;28;2746193;-78
2023/03/31 03:57:14;;;;;;;;;3.00;3.00;;;;;14.49;64.17;99910.84;2003693;28;2740915;-78
2023/03/31 03:58:27;;;;;;;;;5.67;3.00;;;;;14.49;63.70;99894.16;2004460;28;2744009;-77
2023/03/31 03:59:38;;;;;;;;;3.00;2.33;;;;;14.50;64.03;99895.84;1950073;28;2752411;-77
2023/03/31 04:00:49;;;;;;;;;4.33;3.00;;;;;14.51;63.85;99898.41;2002952;28;2740981;-78
2023/03/31 04:01:59;;;;;;;;;4.67;2.00;;;;;14.51;63.99;99885.19;1970661;28;2749326;-78
2023/03/31 04:03:11;;;;;;;;;4.00;2.00;;;;;14.52;63.76;99883.38;1996877;28;2753513;-78
2023/03/31 04:04:21;;;;;;;;;8.33;4.00;;;;;14.52;63.97;99886.00;1978042;28;2754516;-77
2023/03/31 04:05:32;;;;;;;;;5.00;3.00;;;;;14.54;63.71;99880.66;2003578;28;2736751;-77
2023/03/31 04:06:43;;;;;;;;;3.00;2.00;;;;;14.54;63.60;99886.78;1956544;28;2739877;-77
2023/03/31 04:07:54;;;;;;;;;4.33;3.00;;;;;14.54;63.59;99881.50;2003224;28;2745070;-77
2023/03/31 04:09:05;;;;;;;;;6.00;5.00;;;;;14.55;63.90;99883.19;1957296;28;2752420;-78
2023/03/31 04:10:16;;;;;;;;;5.50;2.50;;;;;14.57;63.65;99877.81;2003283;28;2754445;-77
2023/03/31 04:11:27;;;;;;;;;5.00;4.00;;;;;14.57;63.78;99876.00;1977198;28;2754502;-78
2023/03/31 04:12:38;;;;;;;;;7.33;2.00;;;;;14.59;63.82;99874.09;1985515;28;3472115;-78
2023/03/31 04:13:49;;;;;;;;;6.33;4.00;;;;;14.60;63.29;99872.31;2003414;28;2735117;-78
2023/03/31 04:15:03;;;;;;;;;6.33;3.00;;;;;14.59;63.47;99871.44;1982869;28;2735686;-78
2023/03/31 04:16:16;;;;;;;;;7.00;3.33;;;;;14.61;63.47;99874.03;1980548;28;2743014;-78
2023/03/31 04:17:33;;;;;;;;;5.50;3.33;;;;;14.63;63.62;99870.34;1981896;28;2735687;-78
2023/03/31 04:18:43;;;;;;;;;9.00;4.00;;;;;14.63;63.41;99867.69;1955621;28;2759724;-78
2023/03/31 04:19:54;;;;;;;;;9.00;5.33;;;;;14.65;63.55;99862.28;1993493;28;2750315;-78
2023/03/31 04:21:05;;;;;;;;;4.67;4.00;;;;;14.66;63.60;99869.28;2003218;28;2750266;-78
2023/03/31 04:22:19;;;;;;;;;3.00;3.00;;;;;14.67;63.23;99870.16;1963550;28;3464836;-78
2023/03/31 04:23:34;;;;;;;;;3.00;1.17;;;;;14.68;63.38;99864.75;2004554;28;2746114;-78
2023/03/31 04:24:45;;;;;;;;;7.33;4.00;;;;;14.69;63.12;99879.66;1955927;28;2744104;-78
2023/03/31 04:25:59;;;;;;;;;3.83;2.67;;;;;14.69;63.19;99881.47;2003183;28;2750270;-78
2023/03/31 04:27:12;;;;;;;;;3.33;3.00;;;;;14.69;63.03;99873.53;1956208;28;2754493;-78
2023/03/31 04:28:22;;;;;;;;;1.33;1.33;;;;;14.70;63.03;99885.78;1979244;28;2735715;-78
2023/03/31 04:29:36;;;;;;;;;3.00;3.00;;;;;14.70;63.06;99888.44;2004052;28;2725278;-78
2023/03/31 04:30:49;;;;;;;;;4.17;3.00;;;;;14.68;62.91;99888.53;1983816;28;2734649;-78
2023/03/31 04:32:02;;;;;;;;;2.50;0.00;;;;;14.68;63.20;99877.09;1991979;28;2722134;-78
2023/03/31 04:33:16;;;;;;;;;7.83;4.50;;;;;14.68;62.91;99879.75;2011177;28;2746119;-78
2023/03/31 04:34:35;;;;;;;;;6.00;4.50;;;;;14.68;62.91;99877.97;1982933;28;2736732;-78
2023/03/31 04:35:48;;;;;;;;;6.00;4.33;;;;;14.69;63.04;99884.13;1973925;28;2740904;-78
2023/03/31 04:37:01;;;;;;;;;3.00;3.00;;;;;14.70;62.76;99875.22;1950519;28;2749227;-78
2023/03/31 04:38:11;;;;;;;;;9.00;5.00;;;;;14.71;62.84;99874.28;1980151;28;2761729;-78
2023/03/31 04:39:25;;;;;;;;;5.33;3.00;;;;;14.72;62.57;99875.97;2003918;28;2748186;-78
2023/03/31 04:40:36;;;;;;;;;9.00;3.00;;;;;14.71;62.34;99882.22;1986406;28;2755868;-78
2023/03/31 04:41:47;;;;;;;;;7.00;3.33;;;;;14.69;62.24;99877.00;1996942;28;2746087;-78
2023/03/31 04:42:57;;;;;;;;;6.67;4.33;;;;;14.69;62.56;99879.66;2006568;28;2752368;-78
2023/03/31 04:44:08;;;;;;;;;10.00;3.00;;;;;14.69;62.51;99877.00;2000085;28;2781579;-78
2023/03/31 04:45:20;;;;;;;;;5.00;1.75;;;;;14.70;62.63;99877.84;2004297;28;2754441;-78
2023/03/31 04:46:32;;;;;;;;;5.00;2.00;;;;;14.70;62.53;99880.50;1978797;28;2749220;-78
2023/03/31 04:47:46;;;;;;;;;3.50;3.50;;;;;14.71;62.54;99884.84;2004792;28;2747156;-78
2023/03/31 04:48:59;;;;;;;;;7.17;3.83;;;;;14.71;62.42;99883.06;1982015;28;2742977;-78
2023/03/31 04:50:11;;;;;;;;;5.50;4.00;;;;;14.72;62.65;99884.75;1969862;28;1835676;-78
2023/03/31 04:51:21;;;;;;;;;4.33;3.33;;;;;14.73;62.28;99889.09;1979766;28;2752417;-78
2023/03/31 04:52:32;;;;;;;;;3.00;2.00;;;;;14.74;62.53;99882.03;2010550;28;2750318;-78
2023/03/31 04:53:45;;;;;;;;;6.75;3.00;;;;;14.74;62.72;99884.66;2011263;28;2744027;-78
2023/03/31 04:54:58;;;;;;;;;5.33;3.33;;;;;14.76;62.50;99880.13;2005792;28;2736736;-78
2023/03/31 04:56:09;;;;;;;;;4.33;3.00;;;;;14.74;62.15;99880.19;1969101;28;1837743;-78
2023/03/31 04:57:20;;;;;;;;;5.33;3.33;;;;;14.74;62.21;99874.09;1960134;28;3457529;-78
2023/03/31 04:58:30;;;;;;;;;5.67;3.33;;;;;14.73;62.18;99873.22;1989092;28;3463794;-78
2023/03/31 04:59:42;;;;;;;;;4.67;3.33;;;;;14.72;62.00;99878.59;2004397;28;2741929;-78
2023/03/31 05:00:52;;;;;;;;;6.00;5.00;;;;;14.72;62.17;99878.59;1957707;28;2748215;-78
2023/03/31 05:02:05;;;;;;;;;3.00;1.20;;;;;14.71;62.13;99876.91;2004916;28;2730489;-78
2023/03/31 05:04:39;;;;;;;;;7.33;4.67;;;;;14.71;62.13;99875.13;1893144;26;2746115;-78
2023/03/31 05:05:50;;;;;;;;;6.50;3.00;;;;;14.72;62.10;99889.19;2003653;28;2740364;-78
2023/03/31 05:07:01;;;;;;;;;3.33;2.00;;;;;14.72;61.74;99878.59;1977769;28;3466270;-78
2023/03/31 05:08:12;;;;;;;;;6.00;6.00;;;;;14.72;62.00;99875.97;1985538;28;2742963;-78
2023/03/31 05:09:23;;;;;;;;;9.00;4.00;;;;;14.73;61.42;99875.03;1982289;28;2744111;-78
2023/03/31 05:10:34;;;;;;;;;6.67;2.33;;;;;14.72;61.60;99875.97;1992485;28;2754843;-78
2023/03/31 05:11:45;;;;;;;;;9.33;4.00;;;;;14.73;61.48;99877.66;1986569;28;2754536;-78
2023/03/31 05:12:57;;;;;;;;;6.20;4.20;;;;;14.73;61.18;99882.97;2003366;28;2748175;-78
2023/03/31 05:14:11;;;;;;;;;8.17;4.17;;;;;14.73;61.02;99888.25;1995470;28;2746167;-79
2023/03/31 05:15:23;;;;;;;;;5.33;4.00;;;;;14.73;61.46;99885.59;1948247;28;3455540;-78
2023/03/31 05:16:33;;;;;;;;;5.67;3.00;;;;;14.74;61.38;99879.38;1968734;28;2750322;-78
2023/03/31 05:17:45;;;;;;;;;7.67;4.00;;;;;14.73;61.43;99870.59;2002696;28;1835703;-78
2023/03/31 05:18:56;;;;;;;;;5.00;2.50;;;;;14.75;61.35;99873.13;1981837;28;2740970;-78
2023/03/31 05:20:08;;;;;;;;;10.33;3.67;;;;;14.77;61.30;99868.56;1954734;28;3486694;-78
2023/03/31 05:21:21;;;;;;;;;10.67;4.00;;;;;14.77;61.35;99876.50;2003994;28;2761055;-78
2023/03/31 05:22:34;;;;;;;;;4.33;3.00;;;;;14.78;61.35;99870.28;1957032;28;3461711;-78
2023/03/31 05:23:47;;;;;;;;;6.50;4.67;;;;;14.78;61.02;99882.66;2004472;28;2744083;-79
2023/03/31 05:25:01;;;;;;;;;4.50;3.33;;;;;14.77;61.18;99871.22;1982261;28;2749220;-78
2023/03/31 05:26:15;;;;;;;;;4.50;3.83;;;;;14.78;61.47;99862.34;1982860;28;2719065;-78
2023/03/31 05:27:28;;;;;;;;;8.00;4.00;;;;;14.78;60.79;99875.56;1969680;28;2741921;-78
2023/03/31 05:28:39;;;;;;;;;13.33;5.00;;;;;14.77;60.84;99863.28;1941458;28;3508608;-79
2023/03/31 05:29:50;;;;;;;;;6.67;4.00;;;;;14.74;60.51;99861.69;1980567;28;2738815;-78
2023/03/31 05:31:02;;;;;;;;;13.67;5.00;;;;;14.74;60.74;99860.88;1977660;28;3511710;-78
2023/03/31 05:32:12;;;;;;;;;7.33;4.00;;;;;14.74;60.58;99852.94;1971045;28;3463771;-78
2023/03/31 05:33:24;;;;;;;;;7.50;5.00;;;;;14.72;60.72;99844.22;1996720;28;2758598;-78
2023/03/31 05:34:37;;;;;;;;;5.83;3.67;;;;;14.73;60.67;99859.16;2003963;28;2742969;-78
2023/03/31 05:35:50;;;;;;;;;8.50;4.17;;;;;14.72;60.57;99862.72;1982214;28;2746121;-78
2023/03/31 05:37:01;;;;;;;;;6.33;3.33;;;;;14.72;60.70;99862.72;1953901;28;2752366;-78
2023/03/31 05:38:12;;;;;;;;;5.00;1.67;;;;;14.72;60.95;99849.50;1997787;28;2747163;-78
2023/03/31 05:39:25;;;;;;;;;8.50;4.00;;;;;14.73;60.32;99843.28;1982201;28;2739864;-78
2023/03/31 05:40:39;;;;;;;;;4.00;2.83;;;;;14.74;60.60;99845.00;1980461;28;2750809;-78
2023/03/31 05:41:52;;;;;;;;;5.67;3.50;;;;;14.74;60.54;99848.47;1982124;28;2741953;-78
2023/03/31 05:43:02;;;;;;;;;5.00;3.00;;;;;14.74;60.54;99837.06;1961399;28;1841945;-78
2023/03/31 05:44:14;;;;;;;;;8.00;4.00;;;;;14.74;60.48;99840.53;1964541;28;2750367;-78
2023/03/31 05:45:27;;;;;;;;;3.83;3.00;;;;;14.75;60.09;99851.97;2002273;28;2744008;-80
2023/03/31 05:46:37;;;;;;;;;4.33;2.33;;;;;14.75;60.25;99844.03;1978415;28;3459611;-80
2023/03/31 05:47:48;;;;;;;;;9.33;5.00;;;;;14.74;60.16;99843.16;1994309;28;3474276;-79
2023/03/31 05:48:59;;;;;;;;;7.67;4.00;;;;;14.75;60.32;99836.09;1987658;28;3470053;-78
2023/03/31 05:50:11;;;;;;;;;8.25;4.75;;;;;14.76;60.04;99848.38;1996695;28;2743017;-78
2023/03/31 05:51:22;;;;;;;;;7.67;3.00;;;;;14.75;60.00;99838.75;1968427;28;3461719;-78
2023/03/31 05:52:32;;;;;;;;;6.33;5.00;;;;;14.76;60.22;99847.53;1970515;28;2742008;-78